createdAt,value
2023-04-17T00:00:44.014Z,15.37
2023-04-17T00:03:17.070Z,16.37
2023-04-17T00:05:50.297Z,15.83
2023-04-17T00:08:22.110Z,14.53
2023-04-17T00:11:04.144Z,14.30
2023-04-17T00:13:39.075Z,15.47
2023-04-17T00:16:12.723Z,15.70
2023-04-17T00:18:44.661Z,15.50
2023-04-17T00:21:17.931Z,15.83
2023-04-17T00:23:49.861Z,15.30
2023-04-17T00:26:21.680Z,15.27
2023-04-17T00:28:53.533Z,14.87
2023-04-17T00:31:25.414Z,16.27
2023-04-17T00:34:01.183Z,15.17
2023-04-17T00:36:35.628Z,15.37
2023-04-17T00:39:07.471Z,15.90
2023-04-17T00:41:39.341Z,14.83
2023-04-17T00:44:11.251Z,15.57
2023-04-17T00:46:43.748Z,15.20
2023-04-17T00:49:17.110Z,15.73
2023-04-17T00:51:50.684Z,15.73
2023-04-17T00:54:24.250Z,15.77
2023-04-17T00:56:57.653Z,16.20
2023-04-17T00:59:32.623Z,16.10
2023-04-17T01:02:05.320Z,15.67
2023-04-17T01:04:37.326Z,15.80
2023-04-17T01:07:10.475Z,16.13
2023-04-17T01:09:42.537Z,15.43
2023-04-17T01:12:25.859Z,15.77
2023-04-17T01:14:58.716Z,14.70
2023-04-17T01:17:30.584Z,15.13
2023-04-17T01:20:06.082Z,17.40
2023-04-17T01:22:39.041Z,15.03
2023-04-17T01:25:13.355Z,15.87
2023-04-17T01:27:45.279Z,15.60
2023-04-17T01:30:18.693Z,16.23
2023-04-17T01:32:50.602Z,16.33
2023-04-17T01:35:22.665Z,15.53
2023-04-17T01:37:54.548Z,15.93
2023-04-17T01:40:27.717Z,16.57
2023-04-17T01:42:59.508Z,16.47
2023-04-17T01:45:31.349Z,16.93
2023-04-17T01:48:03.249Z,16.23
2023-04-17T01:50:35.152Z,16.70
2023-04-17T01:53:06.976Z,16.83
2023-04-17T01:55:39.939Z,15.80
2023-04-17T01:58:11.847Z,16.17
2023-04-17T02:00:43.643Z,15.83
2023-04-17T02:03:15.819Z,16.37
2023-04-17T02:05:51.630Z,16.57
2023-04-17T02:08:24.994Z,16.23
2023-04-17T02:10:58.144Z,16.00
2023-04-17T02:13:29.964Z,16.80
2023-04-17T02:16:01.841Z,15.83
2023-04-17T02:18:33.771Z,16.10
2023-04-17T02:21:05.626Z,16.00
2023-04-17T02:23:37.520Z,15.93
2023-04-17T02:26:10.937Z,16.37
2023-04-17T02:28:44.179Z,16.03
2023-04-17T02:31:16.475Z,16.07
2023-04-17T02:33:48.330Z,15.53
2023-04-17T02:36:20.190Z,15.70
2023-04-17T02:38:52.026Z,15.00
2023-04-17T02:41:25.256Z,16.53
2023-04-17T02:43:58.691Z,14.90
2023-04-17T02:46:30.300Z,15.97
2023-04-17T02:49:02.146Z,15.33
2023-04-17T02:51:34.083Z,15.90
2023-04-17T02:54:05.898Z,16.30
2023-04-17T02:56:39.348Z,15.50
2023-04-17T02:59:11.175Z,15.83
2023-04-17T03:01:45.763Z,15.73
2023-04-17T03:04:17.476Z,15.30
2023-04-17T03:06:49.246Z,15.90
2023-04-17T03:09:22.339Z,15.77
2023-04-17T03:11:55.545Z,15.67
2023-04-17T03:14:27.535Z,16.23
2023-04-17T03:16:59.591Z,15.87
2023-04-17T03:19:31.186Z,16.13
2023-04-17T03:22:03.528Z,15.60
2023-04-17T03:24:35.714Z,15.97
2023-04-17T03:27:08.927Z,16.77
2023-04-17T03:29:40.766Z,15.50
2023-04-17T03:32:12.744Z,15.30
2023-04-17T03:34:44.471Z,15.40
2023-04-17T03:37:16.389Z,16.17
2023-04-17T03:39:48.205Z,15.20
2023-04-17T03:42:21.233Z,15.63
2023-04-17T03:44:53.011Z,15.57
2023-04-17T03:47:24.862Z,15.23
2023-04-17T03:49:56.790Z,15.37
2023-04-17T03:52:28.674Z,15.73
2023-04-17T03:55:00.487Z,15.60
2023-04-17T03:57:33.694Z,16.57
2023-04-17T04:00:10.390Z,15.30
2023-04-17T04:02:42.230Z,14.83
2023-04-17T04:05:14.465Z,14.80
2023-04-17T04:07:46.086Z,16.00
2023-04-17T04:10:17.903Z,16.03
2023-04-17T04:12:50.877Z,15.63
2023-04-17T04:15:22.778Z,15.20
2023-04-17T04:17:54.635Z,15.10
2023-04-17T04:20:26.534Z,15.43
2023-04-17T04:22:59.279Z,15.93
2023-04-17T04:25:32.360Z,16.00
2023-04-17T04:28:05.536Z,15.77
2023-04-17T04:30:38.634Z,14.50
2023-04-17T04:33:11.193Z,15.23
2023-04-17T04:35:47.503Z,15.73
2023-04-17T04:38:19.986Z,15.03
2023-04-17T04:40:52.215Z,15.77
2023-04-17T04:43:25.787Z,15.83
2023-04-17T04:45:57.741Z,15.77
2023-04-17T04:48:29.781Z,15.90
2023-04-17T04:51:01.543Z,15.30
2023-04-17T04:53:33.223Z,16.73
2023-04-17T04:56:05.124Z,15.57
2023-04-17T04:58:38.672Z,16.17
2023-04-17T05:01:10.807Z,17.00
2023-04-17T05:03:42.565Z,15.57
2023-04-17T05:06:14.627Z,16.20
2023-04-17T05:08:46.387Z,15.70
2023-04-17T05:11:18.190Z,15.50
2023-04-17T05:13:51.156Z,15.80
2023-04-17T05:16:23.010Z,16.20
2023-04-17T05:18:54.883Z,16.03
2023-04-17T05:21:28.259Z,16.30
2023-04-17T05:24:01.740Z,17.00
2023-04-17T05:26:33.381Z,15.63
2023-04-17T05:29:06.499Z,16.17
2023-04-17T05:31:38.303Z,15.87
2023-04-17T05:34:10.132Z,15.80
2023-04-17T05:36:42.170Z,16.23
2023-04-17T05:39:13.946Z,15.63
2023-04-17T05:41:45.548Z,15.30
2023-04-17T05:44:18.716Z,15.27
2023-04-17T05:46:50.612Z,15.23
2023-04-17T05:49:22.424Z,16.03
2023-04-17T05:51:54.313Z,16.30
2023-04-17T05:54:27.922Z,15.40
2023-04-17T05:57:01.165Z,15.20
2023-04-17T05:59:34.450Z,14.90
2023-04-17T06:02:06.437Z,16.33
2023-04-17T06:04:38.286Z,15.23
2023-04-17T06:07:11.366Z,15.37
2023-04-17T06:09:43.413Z,15.10
2023-04-17T06:12:16.193Z,16.70
2023-04-17T06:14:49.277Z,14.80
2023-04-17T06:17:21.139Z,16.33
2023-04-17T06:19:53.143Z,15.47
2023-04-17T06:22:24.990Z,15.67
2023-04-17T06:24:56.976Z,15.60
2023-04-17T06:27:28.784Z,15.63
2023-04-17T06:30:02.091Z,14.97
2023-04-17T06:32:33.953Z,16.10
2023-04-17T06:35:05.718Z,15.57
2023-04-17T06:37:37.565Z,14.70
2023-04-17T06:40:12.215Z,15.43
2023-04-17T06:42:43.832Z,15.83
2023-04-17T06:45:17.348Z,15.03
2023-04-17T06:47:50.714Z,15.30
2023-04-17T06:50:22.697Z,15.80
2023-04-17T06:52:54.484Z,15.67
2023-04-17T06:55:27.210Z,15.53
2023-04-17T06:58:00.813Z,14.70
2023-04-17T07:00:34.132Z,15.27
2023-04-17T07:03:07.732Z,16.00
2023-04-17T07:05:39.718Z,15.07
2023-04-17T07:08:11.521Z,14.80
2023-04-17T07:10:43.329Z,14.90
2023-04-17T07:13:15.215Z,14.03
2023-04-17T07:15:54.895Z,14.63
2023-04-17T07:18:26.932Z,13.97
2023-04-17T07:20:58.800Z,14.07
2023-04-17T07:23:30.582Z,15.57
2023-04-17T07:26:02.539Z,14.90
2023-04-17T07:28:34.483Z,13.50
2023-04-17T07:31:08.750Z,14.13
2023-04-17T07:33:41.121Z,12.27
2023-04-17T07:36:14.477Z,14.10
2023-04-17T07:38:46.416Z,13.10
2023-04-17T07:41:18.211Z,13.43
2023-04-17T07:43:50.086Z,12.37
2023-04-17T07:46:23.291Z,13.87
2023-04-17T07:48:55.265Z,13.10
2023-04-17T07:51:27.641Z,13.83
2023-04-17T07:53:59.453Z,13.20
2023-04-17T07:56:31.845Z,13.47
2023-04-17T07:59:03.435Z,13.47
2023-04-17T08:01:36.657Z,12.83
2023-04-17T08:04:08.753Z,13.37
2023-04-17T08:06:41.164Z,13.33
2023-04-17T08:09:13.562Z,13.53
2023-04-17T08:11:56.223Z,13.03
2023-04-17T08:14:30.761Z,13.30
2023-04-17T08:17:04.344Z,12.80
2023-04-17T08:19:36.258Z,13.80
2023-04-17T08:22:08.847Z,13.17
2023-04-17T08:24:42.535Z,13.27
2023-04-17T08:27:16.343Z,12.90
2023-04-17T08:29:49.951Z,13.03
2023-04-17T08:32:22.891Z,13.03
2023-04-17T08:34:58.307Z,13.17
2023-04-17T08:37:34.932Z,13.63
2023-04-17T08:40:09.357Z,13.67
2023-04-17T08:42:48.203Z,13.50
2023-04-17T08:45:23.963Z,13.27
2023-04-17T08:47:57.277Z,13.47
2023-04-17T08:50:29.395Z,12.63
2023-04-17T08:53:01.106Z,12.20
2023-04-17T08:55:34.340Z,13.03
2023-04-17T08:58:09.365Z,13.10
2023-04-17T09:00:43.290Z,13.10
2023-04-17T09:03:17.547Z,12.50
2023-04-17T09:05:49.235Z,12.20
2023-04-17T09:08:24.708Z,12.30
2023-04-17T09:10:57.652Z,12.40
2023-04-17T09:13:30.440Z,12.47
2023-04-17T09:16:12.793Z,11.90
2023-04-17T09:18:47.545Z,11.30
2023-04-17T09:21:28.217Z,12.23
2023-04-17T09:24:00.973Z,11.27
2023-04-17T09:26:34.286Z,10.83
2023-04-17T09:29:09.284Z,10.47
2023-04-17T09:31:43.256Z,11.20
2023-04-17T09:34:17.765Z,10.67
2023-04-17T09:36:54.921Z,10.70
2023-04-17T09:39:27.617Z,9.90
2023-04-17T09:42:07.056Z,9.93
2023-04-17T09:44:40.264Z,10.33
2023-04-17T09:47:13.393Z,10.33
2023-04-17T09:49:52.364Z,9.57
2023-04-17T09:52:26.161Z,8.97
2023-04-17T09:54:58.748Z,8.70
2023-04-17T09:57:30.325Z,9.00
2023-04-17T10:00:05.064Z,9.87
2023-04-17T10:02:39.135Z,9.60
2023-04-17T10:05:14.298Z,9.93
2023-04-17T10:07:48.048Z,9.37
2023-04-17T10:10:27.422Z,9.00
2023-04-17T10:13:03.674Z,9.73
2023-04-17T10:15:36.351Z,9.37
2023-04-17T10:18:24.294Z,8.50
2023-04-17T10:21:18.090Z,9.30
2023-04-17T10:23:49.823Z,9.77
2023-04-17T10:26:40.342Z,9.60
2023-04-17T10:29:12.774Z,8.83
2023-04-17T10:32:18.412Z,8.57
2023-04-17T10:34:50.201Z,7.87
2023-04-17T10:37:42.258Z,8.10
2023-04-17T10:40:21.035Z,8.13
2023-04-17T10:43:07.657Z,7.50
2023-04-17T10:46:10.399Z,7.57
2023-04-17T10:48:50.710Z,7.60
2023-04-17T10:51:43.684Z,7.53
2023-04-17T10:54:16.266Z,7.73
2023-04-17T10:56:55.771Z,8.30
2023-04-17T10:59:30.031Z,7.87
2023-04-17T11:02:07.597Z,8.37
2023-04-17T11:04:39.720Z,8.00
2023-04-17T11:07:13.285Z,7.60
2023-04-17T11:09:54.759Z,8.10
2023-04-17T11:12:28.108Z,8.53
2023-04-17T11:15:08.056Z,7.97
2023-04-17T11:17:46.810Z,7.90
2023-04-17T11:20:24.192Z,8.33
2023-04-17T11:22:56.172Z,8.33
2023-04-17T11:25:31.463Z,7.40
2023-04-17T11:28:07.406Z,7.40
2023-04-17T11:30:44.296Z,7.40
2023-04-17T11:33:16.530Z,8.47
2023-04-17T11:35:48.585Z,6.93
2023-04-17T11:38:24.814Z,7.50
2023-04-17T11:40:59.481Z,7.33
2023-04-17T11:43:39.869Z,7.60
2023-04-17T11:46:12.131Z,7.57
2023-04-17T11:48:43.726Z,7.70
2023-04-17T11:51:21.275Z,7.63
2023-04-17T11:53:53.094Z,7.57
2023-04-17T11:56:28.480Z,8.27
2023-04-17T11:59:04.878Z,8.40
2023-04-17T12:01:36.859Z,7.57
2023-04-17T12:04:24.139Z,7.43
2023-04-17T12:06:57.909Z,7.23
2023-04-17T12:09:32.358Z,6.67
2023-04-17T12:12:06.447Z,7.40
2023-04-17T12:14:40.306Z,7.13
2023-04-17T12:17:12.206Z,7.67
2023-04-17T12:19:45.099Z,7.20
2023-04-17T12:22:17.295Z,8.30
2023-04-17T12:24:48.924Z,8.33
2023-04-17T12:27:21.524Z,9.33
2023-04-17T12:29:55.344Z,7.93
2023-04-17T12:32:27.184Z,8.47
2023-04-17T12:34:58.999Z,7.90
2023-04-17T12:37:30.941Z,7.90
2023-04-17T12:40:02.848Z,8.27
2023-04-17T12:42:46.224Z,8.43
2023-04-17T12:45:21.885Z,8.30
2023-04-17T12:47:54.973Z,8.83
2023-04-17T12:50:27.110Z,8.97
2023-04-17T12:52:59.041Z,8.77
2023-04-17T12:55:30.947Z,8.07
2023-04-17T12:58:04.318Z,7.97
2023-04-17T13:00:37.391Z,8.73
2023-04-17T13:03:09.919Z,9.23
2023-04-17T13:05:41.736Z,8.13
2023-04-17T13:08:15.060Z,7.83
2023-04-17T13:10:47.164Z,8.47
2023-04-17T13:13:19.030Z,7.53
2023-04-17T13:15:53.065Z,7.80
2023-04-17T13:18:24.987Z,8.70
2023-04-17T13:20:57.575Z,8.23
2023-04-17T13:23:30.338Z,7.90
2023-04-17T13:26:02.446Z,7.80
2023-04-17T13:28:34.111Z,8.33
2023-04-17T13:31:07.531Z,8.20
2023-04-17T13:33:40.239Z,7.57
2023-04-17T13:36:13.122Z,8.23
2023-04-17T13:38:45.013Z,8.10
2023-04-17T13:41:17.449Z,7.87
2023-04-17T13:43:49.231Z,8.23
2023-04-17T13:46:22.581Z,7.80
2023-04-17T13:48:54.260Z,7.93
2023-04-17T13:51:26.692Z,8.27
2023-04-17T13:53:59.595Z,7.53
2023-04-17T13:56:31.374Z,8.30
2023-04-17T13:59:03.986Z,7.90
2023-04-17T14:01:37.088Z,8.37
2023-04-17T14:04:09.569Z,7.87
2023-04-17T14:06:43.696Z,7.07
2023-04-17T14:09:16.423Z,7.30
2023-04-17T14:11:48.077Z,6.70
2023-04-17T14:14:20.070Z,7.27
2023-04-17T14:16:53.025Z,6.53
2023-04-17T14:19:24.923Z,6.97
2023-04-17T14:21:56.768Z,5.97
2023-04-17T14:24:28.699Z,6.70
2023-04-17T14:27:01.890Z,6.53
2023-04-17T14:29:33.661Z,6.80
2023-04-17T14:32:06.723Z,6.70
2023-04-17T14:34:38.637Z,6.20
2023-04-17T14:37:10.529Z,6.47
2023-04-17T14:39:42.357Z,6.57
2023-04-17T14:42:14.330Z,6.53
2023-04-17T14:44:47.053Z,6.63
2023-04-17T14:47:20.343Z,6.63
2023-04-17T14:49:52.313Z,6.70
2023-04-17T14:52:24.238Z,6.50
2023-04-17T14:54:56.104Z,5.53
2023-04-17T14:57:28.816Z,5.37
2023-04-17T15:00:00.914Z,6.30
2023-04-17T15:02:38.420Z,6.23
2023-04-17T15:05:12.971Z,6.00
2023-04-17T15:07:44.903Z,5.73
2023-04-17T15:10:17.320Z,6.00
2023-04-17T15:12:49.240Z,6.00
2023-04-17T15:15:21.136Z,5.90
2023-04-17T15:17:54.647Z,6.37
2023-04-17T15:20:28.377Z,6.07
2023-04-17T15:23:00.065Z,6.13
2023-04-17T15:25:32.058Z,5.90
2023-04-17T15:28:03.981Z,6.60
2023-04-17T15:30:35.809Z,6.60
2023-04-17T15:33:10.284Z,6.10
2023-04-17T15:35:42.238Z,7.13
2023-04-17T15:38:14.601Z,6.80
2023-04-17T15:40:46.479Z,6.07
2023-04-17T15:43:18.559Z,6.07
2023-04-17T15:45:50.467Z,6.03
2023-04-17T15:48:23.468Z,6.30
2023-04-17T15:50:55.352Z,6.47
2023-04-17T15:53:27.199Z,6.23
2023-04-17T15:55:59.065Z,6.70
2023-04-17T15:58:31.038Z,6.17
2023-04-17T16:01:02.843Z,5.93
2023-04-17T16:03:37.325Z,6.07
2023-04-17T16:06:11.161Z,6.57
2023-04-17T16:08:43.069Z,6.33
2023-04-17T16:11:15.023Z,6.23
2023-04-17T16:13:46.813Z,6.43
2023-04-17T16:16:18.649Z,6.00
2023-04-17T16:18:52.282Z,6.07
2023-04-17T16:21:24.212Z,6.73
2023-04-17T16:23:58.403Z,6.63
2023-04-17T16:26:30.185Z,6.70
2023-04-17T16:29:02.094Z,6.60
2023-04-17T16:31:34.088Z,6.57
2023-04-17T16:34:09.478Z,6.60
2023-04-17T16:36:45.438Z,5.83
2023-04-17T16:39:17.253Z,6.60
2023-04-17T16:41:49.071Z,6.67
2023-04-17T16:44:20.969Z,6.70
2023-04-17T16:47:09.981Z,6.83
2023-04-17T16:49:46.363Z,6.63
2023-04-17T16:52:19.205Z,6.80
2023-04-17T16:54:51.033Z,6.93
2023-04-17T16:57:22.952Z,6.93
2023-04-17T16:59:54.780Z,6.70
2023-04-17T17:02:26.765Z,6.50
2023-04-17T17:04:59.784Z,6.20
2023-04-17T17:07:31.729Z,6.27
2023-04-17T17:10:03.736Z,6.17
2023-04-17T17:12:35.630Z,6.10
2023-04-17T17:15:08.686Z,6.57
2023-04-17T17:17:40.630Z,7.07
2023-04-17T17:20:14.710Z,7.03
2023-04-17T17:22:46.548Z,6.20
2023-04-17T17:25:18.223Z,7.03
2023-04-17T17:27:50.192Z,6.80
2023-04-17T17:30:21.876Z,6.63
2023-04-17T17:32:53.786Z,7.13
2023-04-17T17:35:26.896Z,7.13
2023-04-17T17:37:58.849Z,6.53
2023-04-17T17:40:30.803Z,6.60
2023-04-17T17:43:02.423Z,7.30
2023-04-17T17:45:34.303Z,6.87
2023-04-17T17:48:06.335Z,6.80
2023-04-17T17:50:39.491Z,7.47
2023-04-17T17:53:11.617Z,6.93
2023-04-17T17:55:43.258Z,6.73
2023-04-17T17:58:15.074Z,6.87
2023-04-17T18:00:46.879Z,6.57
2023-04-17T18:03:19.247Z,6.50
2023-04-17T18:05:52.633Z,6.30
2023-04-17T18:08:24.304Z,6.50
2023-04-17T18:10:56.177Z,6.60
2023-04-17T18:13:28.035Z,6.70
2023-04-17T18:16:00.046Z,6.27
2023-04-17T18:18:31.952Z,6.60
2023-04-17T18:21:09.254Z,6.63
2023-04-17T18:23:40.962Z,6.90
2023-04-17T18:26:12.914Z,7.17
2023-04-17T18:28:44.889Z,6.03
2023-04-17T18:31:16.685Z,5.73
2023-04-17T18:33:48.637Z,6.03
2023-04-17T18:36:22.696Z,5.77
2023-04-17T18:38:54.645Z,5.60
2023-04-17T18:41:28.506Z,5.83
2023-04-17T18:44:00.796Z,5.27
2023-04-17T18:46:32.812Z,4.87
2023-04-17T18:49:04.551Z,5.70
2023-04-17T18:51:38.296Z,5.20
2023-04-17T18:54:10.242Z,4.87
2023-04-17T18:56:41.982Z,4.83
2023-04-17T18:59:14.099Z,4.87
2023-04-17T19:01:45.776Z,4.70
2023-04-17T19:04:17.619Z,5.20
2023-04-17T19:06:50.630Z,5.10
2023-04-17T19:09:22.619Z,4.47
2023-04-17T19:11:55.069Z,4.73
2023-04-17T19:14:26.679Z,4.80
2023-04-17T19:16:58.551Z,4.43
2023-04-17T19:19:30.452Z,4.60
2023-04-17T19:22:03.593Z,4.30
2023-04-17T19:24:35.448Z,4.10
2023-04-17T19:27:07.363Z,4.13
2023-04-17T19:29:39.199Z,4.30
2023-04-17T19:32:11.121Z,3.90
2023-04-17T19:34:43.949Z,4.00
2023-04-17T19:37:16.922Z,3.83
2023-04-17T19:39:48.717Z,3.60
2023-04-17T19:42:20.567Z,3.93
2023-04-17T19:44:52.398Z,3.80
2023-04-17T19:47:24.886Z,3.50
2023-04-17T19:49:56.712Z,3.80
2023-04-17T19:52:29.796Z,3.77
2023-04-17T19:55:01.696Z,3.63
2023-04-17T19:57:33.606Z,3.67
2023-04-17T20:00:05.611Z,3.60
2023-04-17T20:02:39.090Z,3.80
2023-04-17T20:05:12.239Z,4.10
2023-04-17T20:07:45.218Z,3.70
2023-04-17T20:10:17.629Z,4.03
2023-04-17T20:12:49.712Z,3.90
2023-04-17T20:15:23.270Z,3.70
2023-04-17T20:17:55.330Z,4.00
2023-04-17T20:20:27.319Z,3.77
2023-04-17T20:23:00.236Z,3.73
2023-04-17T20:25:32.004Z,4.00
2023-04-17T20:28:03.950Z,4.03
2023-04-17T20:30:36.369Z,3.80
2023-04-17T20:33:08.357Z,3.80
2023-04-17T20:35:39.995Z,3.73
2023-04-17T20:38:13.069Z,3.77
2023-04-17T20:40:45.467Z,3.70
2023-04-17T20:43:17.698Z,4.30
2023-04-17T20:45:50.653Z,3.80
2023-04-17T20:48:22.395Z,3.93
2023-04-17T20:50:54.325Z,4.20
2023-04-17T20:53:27.250Z,3.73
2023-04-17T20:56:00.590Z,4.23
2023-04-17T20:58:32.436Z,4.00
2023-04-17T21:01:04.671Z,4.57
2023-04-17T21:03:36.337Z,4.30
2023-04-17T21:06:08.209Z,4.37
2023-04-17T21:08:41.416Z,4.40
2023-04-17T21:11:13.255Z,4.87
2023-04-17T21:13:45.089Z,4.43
2023-04-17T21:16:17.129Z,4.50
2023-04-17T21:18:51.288Z,4.87
2023-04-17T21:21:23.482Z,4.53
2023-04-17T21:23:56.752Z,4.27
2023-04-17T21:26:29.258Z,4.77
2023-04-17T21:29:00.841Z,4.50
2023-04-17T21:31:34.240Z,4.40
2023-04-17T21:34:06.037Z,4.13
2023-04-17T21:36:37.877Z,4.10
2023-04-17T21:39:10.919Z,4.37
2023-04-17T21:41:42.947Z,4.23
2023-04-17T21:44:14.958Z,4.33
2023-04-17T21:46:48.966Z,5.00
2023-04-17T21:49:20.959Z,4.50
2023-04-17T21:51:52.936Z,4.53
2023-04-17T21:54:27.457Z,4.53
2023-04-17T21:56:59.194Z,4.60
2023-04-17T21:59:31.129Z,4.43
2023-04-17T22:02:03.305Z,4.50
2023-04-17T22:04:35.205Z,4.57
2023-04-17T22:07:08.500Z,5.07
2023-04-17T22:09:41.436Z,5.60
2023-04-17T22:12:17.634Z,5.03
2023-04-17T22:14:51.842Z,5.60
2023-04-17T22:17:23.867Z,5.80
2023-04-17T22:19:55.751Z,5.67
2023-04-17T22:22:27.598Z,5.67
2023-04-17T22:25:00.612Z,5.60
2023-04-17T22:27:32.546Z,5.60
2023-04-17T22:30:04.454Z,5.33
2023-04-17T22:32:36.161Z,5.97
2023-04-17T22:35:09.261Z,5.57
2023-04-17T22:37:41.315Z,5.73
2023-04-17T22:40:18.454Z,5.87
2023-04-17T22:42:50.268Z,6.07
2023-04-17T22:45:21.941Z,6.20
2023-04-17T22:47:53.920Z,6.63
2023-04-17T22:50:25.766Z,6.77
2023-04-17T22:52:57.600Z,6.67
2023-04-17T22:55:30.789Z,7.03
2023-04-17T22:58:05.853Z,6.77
2023-04-17T23:00:38.269Z,6.53
2023-04-17T23:03:10.126Z,7.20
2023-04-17T23:05:41.929Z,7.03
2023-04-17T23:08:13.640Z,7.43
2023-04-17T23:10:46.712Z,7.17
2023-04-17T23:13:18.516Z,7.20
2023-04-17T23:15:51.337Z,7.20
2023-04-17T23:18:24.355Z,7.27
2023-04-17T23:20:56.412Z,7.10
2023-04-17T23:23:27.974Z,7.27
2023-04-17T23:26:01.170Z,7.57
2023-04-17T23:28:33.015Z,7.80
2023-04-17T23:31:09.953Z,7.27
2023-04-17T23:33:41.931Z,7.23
2023-04-17T23:36:14.205Z,6.27
2023-04-17T23:38:46.061Z,7.07
2023-04-17T23:41:19.025Z,6.97
2023-04-17T23:43:51.342Z,6.60
2023-04-17T23:46:23.297Z,7.50
2023-04-17T23:48:55.006Z,7.20
2023-04-17T23:51:27.560Z,7.60
2023-04-17T23:54:01.140Z,7.07
2023-04-17T23:56:34.301Z,7.53
2023-04-17T23:59:06.126Z,8.07
